sensor_id;sensor_type;location;lat;lon;timestamp;P1;durP1;ratioP1;P2;durP2;ratioP2
46078;SDS011;31820;51.880;-0.518;2022-10-22T00:02:21;4.10;;;1.08;;
46078;SDS011;31820;51.880;-0.518;2022-10-22T00:04:47;2.95;;;1.00;;
46078;SDS011;31820;51.880;-0.518;2022-10-22T00:07:14;2.78;;;1.00;;
46078;SDS011;31820;51.880;-0.518;2022-10-22T00:09:42;2.60;;;0.93;;
46078;SDS011;31820;51.880;-0.518;2022-10-22T00:12:07;1.98;;;0.68;;
46078;SDS011;31820;51.880;-0.518;2022-10-22T00:14:33;2.67;;;0.82;;
46078;SDS011;31820;51.880;-0.518;2022-10-22T00:16:59;2.67;;;0.73;;
46078;SDS011;31820;51.880;-0.518;2022-10-22T00:19:25;2.88;;;1.08;;
46078;SDS011;31820;51.880;-0.518;2022-10-22T00:21:51;2.78;;;0.88;;
46078;SDS011;31820;51.880;-0.518;2022-10-22T00:24:17;2.65;;;0.80;;
46078;SDS011;31820;51.880;-0.518;2022-10-22T00:26:42;2.55;;;1.05;;
46078;SDS011;31820;51.880;-0.518;2022-10-22T00:29:08;2.92;;;0.90;;
46078;SDS011;31820;51.880;-0.518;2022-10-22T00:31:34;3.40;;;0.73;;
46078;SDS011;31820;51.880;-0.518;2022-10-22T00:33:59;2.85;;;1.27;;
46078;SDS011;31820;51.880;-0.518;2022-10-22T00:36:25;2.85;;;0.90;;
46078;SDS011;31820;51.880;-0.518;2022-10-22T00:38:51;1.92;;;0.70;;
46078;SDS011;31820;51.880;-0.518;2022-10-22T00:41:16;2.33;;;1.00;;
46078;SDS011;31820;51.880;-0.518;2022-10-22T00:46:58;3.30;;;0.85;;
46078;SDS011;31820;51.880;-0.518;2022-10-22T00:49:24;1.90;;;1.02;;
46078;SDS011;31820;51.880;-0.518;2022-10-22T00:51:49;2.00;;;0.73;;
46078;SDS011;31820;51.880;-0.518;2022-10-22T00:54:15;3.22;;;0.75;;
46078;SDS011;31820;51.880;-0.518;2022-10-22T00:56:40;2.58;;;0.82;;
46078;SDS011;31820;51.880;-0.518;2022-10-22T00:59:06;0.88;;;0.47;;
46078;SDS011;31820;51.880;-0.518;2022-10-22T01:01:32;1.63;;;0.70;;
46078;SDS011;31820;51.880;-0.518;2022-10-22T01:03:58;1.50;;;0.63;;
46078;SDS011;31820;51.880;-0.518;2022-10-22T01:06:27;2.45;;;0.57;;
46078;SDS011;31820;51.880;-0.518;2022-10-22T01:14:28;1.50;;;0.65;;
46078;SDS011;31820;51.880;-0.518;2022-10-22T01:23:02;2.33;;;0.70;;
46078;SDS011;31820;51.880;-0.518;2022-10-22T01:28:47;1.70;;;0.60;;
46078;SDS011;31820;51.880;-0.518;2022-10-22T01:31:22;2.40;;;0.80;;
46078;SDS011;31820;51.880;-0.518;2022-10-22T01:33:51;3.38;;;0.80;;
46078;SDS011;31820;51.880;-0.518;2022-10-22T01:38:45;1.57;;;0.50;;
46078;SDS011;31820;51.880;-0.518;2022-10-22T01:41:13;2.95;;;0.80;;
46078;SDS011;31820;51.880;-0.518;2022-10-22T01:43:39;2.65;;;0.80;;
46078;SDS011;31820;51.880;-0.518;2022-10-22T01:46:05;2.33;;;0.70;;
46078;SDS011;31820;51.880;-0.518;2022-10-22T01:58:53;3.28;;;0.77;;
46078;SDS011;31820;51.880;-0.518;2022-10-22T02:04:27;2.78;;;1.08;;
46078;SDS011;31820;51.880;-0.518;2022-10-22T02:06:58;1.50;;;0.52;;
46078;SDS011;31820;51.880;-0.518;2022-10-22T02:09:29;1.50;;;0.60;;
46078;SDS011;31820;51.880;-0.518;2022-10-22T02:11:55;1.92;;;0.45;;
46078;SDS011;31820;51.880;-0.518;2022-10-22T02:14:23;2.20;;;0.68;;
46078;SDS011;31820;51.880;-0.518;2022-10-22T02:21:45;1.60;;;0.60;;
46078;SDS011;31820;51.880;-0.518;2022-10-22T02:24:10;2.58;;;0.60;;
46078;SDS011;31820;51.880;-0.518;2022-10-22T02:26:38;1.85;;;0.60;;
46078;SDS011;31820;51.880;-0.518;2022-10-22T02:29:10;1.70;;;0.60;;
46078;SDS011;31820;51.880;-0.518;2022-10-22T02:31:37;2.15;;;0.60;;
46078;SDS011;31820;51.880;-0.518;2022-10-22T02:34:08;1.35;;;0.50;;
46078;SDS011;31820;51.880;-0.518;2022-10-22T02:36:39;1.20;;;0.40;;
46078;SDS011;31820;51.880;-0.518;2022-10-22T02:39:07;1.98;;;0.60;;
46078;SDS011;31820;51.880;-0.518;2022-10-22T02:41:35;2.28;;;0.60;;
46078;SDS011;31820;51.880;-0.518;2022-10-22T02:44:02;1.70;;;0.50;;
46078;SDS011;31820;51.880;-0.518;2022-10-22T02:46:33;1.60;;;0.50;;
46078;SDS011;31820;51.880;-0.518;2022-10-22T02:48:58;1.42;;;0.38;;
46078;SDS011;31820;51.880;-0.518;2022-10-22T02:51:24;2.45;;;1.00;;
46078;SDS011;31820;51.880;-0.518;2022-10-22T02:53:49;2.42;;;0.60;;
46078;SDS011;31820;51.880;-0.518;2022-10-22T02:56:15;1.20;;;0.55;;
46078;SDS011;31820;51.880;-0.518;2022-10-22T02:58:41;1.25;;;0.40;;
46078;SDS011;31820;51.880;-0.518;2022-10-22T03:01:06;2.08;;;0.70;;
46078;SDS011;31820;51.880;-0.518;2022-10-22T03:03:32;0.90;;;0.30;;
46078;SDS011;31820;51.880;-0.518;2022-10-22T03:05:57;1.88;;;0.50;;
46078;SDS011;31820;51.880;-0.518;2022-10-22T03:08:23;2.53;;;0.65;;
46078;SDS011;31820;51.880;-0.518;2022-10-22T03:10:48;1.50;;;0.60;;
46078;SDS011;31820;51.880;-0.518;2022-10-22T03:13:14;1.55;;;0.65;;
46078;SDS011;31820;51.880;-0.518;2022-10-22T03:15:39;1.13;;;0.30;;
46078;SDS011;31820;51.880;-0.518;2022-10-22T03:18:05;1.85;;;0.50;;
46078;SDS011;31820;51.880;-0.518;2022-10-22T03:20:30;1.08;;;0.40;;
46078;SDS011;31820;51.880;-0.518;2022-10-22T03:22:56;1.27;;;0.68;;
46078;SDS011;31820;51.880;-0.518;2022-10-22T03:25:23;1.05;;;0.40;;
46078;SDS011;31820;51.880;-0.518;2022-10-22T03:27:50;1.83;;;0.45;;
46078;SDS011;31820;51.880;-0.518;2022-10-22T03:30:18;1.42;;;0.40;;
46078;SDS011;31820;51.880;-0.518;2022-10-22T03:32:44;1.45;;;0.50;;
46078;SDS011;31820;51.880;-0.518;2022-10-22T03:35:09;2.00;;;0.40;;
46078;SDS011;31820;51.880;-0.518;2022-10-22T03:37:35;1.75;;;0.40;;
46078;SDS011;31820;51.880;-0.518;2022-10-22T03:40:02;2.50;;;0.70;;
46078;SDS011;31820;51.880;-0.518;2022-10-22T03:42:29;1.88;;;0.43;;
46078;SDS011;31820;51.880;-0.518;2022-10-22T03:44:55;2.08;;;0.80;;
46078;SDS011;31820;51.880;-0.518;2022-10-22T03:47:21;1.63;;;0.30;;
46078;SDS011;31820;51.880;-0.518;2022-10-22T03:49:49;2.20;;;0.35;;
46078;SDS011;31820;51.880;-0.518;2022-10-22T03:52:17;2.13;;;0.57;;
46078;SDS011;31820;51.880;-0.518;2022-10-22T03:54:43;1.13;;;0.40;;
46078;SDS011;31820;51.880;-0.518;2022-10-22T03:57:09;1.08;;;0.40;;
46078;SDS011;31820;51.880;-0.518;2022-10-22T03:59:35;1.50;;;0.35;;
46078;SDS011;31820;51.880;-0.518;2022-10-22T04:02:05;1.65;;;0.50;;
46078;SDS011;31820;51.880;-0.518;2022-10-22T04:04:31;1.70;;;0.40;;
46078;SDS011;31820;51.880;-0.518;2022-10-22T04:06:56;2.03;;;0.50;;
46078;SDS011;31820;51.880;-0.518;2022-10-22T04:09:22;2.00;;;0.47;;
46078;SDS011;31820;51.880;-0.518;2022-10-22T04:11:47;1.98;;;0.88;;
46078;SDS011;31820;51.880;-0.518;2022-10-22T04:14:13;0.93;;;0.40;;
46078;SDS011;31820;51.880;-0.518;2022-10-22T04:16:39;1.55;;;0.40;;
46078;SDS011;31820;51.880;-0.518;2022-10-22T04:19:05;1.00;;;0.50;;
46078;SDS011;31820;51.880;-0.518;2022-10-22T04:21:31;1.90;;;0.40;;
46078;SDS011;31820;51.880;-0.518;2022-10-22T04:23:57;1.50;;;0.47;;
46078;SDS011;31820;51.880;-0.518;2022-10-22T04:26:23;1.60;;;0.38;;
46078;SDS011;31820;51.880;-0.518;2022-10-22T04:28:49;1.13;;;0.30;;
46078;SDS011;31820;51.880;-0.518;2022-10-22T04:31:17;1.70;;;0.47;;
46078;SDS011;31820;51.880;-0.518;2022-10-22T04:33:44;1.60;;;0.50;;
46078;SDS011;31820;51.880;-0.518;2022-10-22T04:36:11;2.28;;;0.50;;
46078;SDS011;31820;51.880;-0.518;2022-10-22T04:38:39;1.70;;;0.30;;
46078;SDS011;31820;51.880;-0.518;2022-10-22T04:41:12;0.65;;;0.25;;
46078;SDS011;31820;51.880;-0.518;2022-10-22T04:43:38;0.95;;;0.20;;
46078;SDS011;31820;51.880;-0.518;2022-10-22T04:46:04;0.85;;;0.22;;
46078;SDS011;31820;51.880;-0.518;2022-10-22T04:48:34;1.05;;;0.28;;
46078;SDS011;31820;51.880;-0.518;2022-10-22T04:51:00;1.02;;;0.52;;
46078;SDS011;31820;51.880;-0.518;2022-10-22T04:53:26;1.25;;;0.45;;
46078;SDS011;31820;51.880;-0.518;2022-10-22T04:55:52;1.35;;;0.40;;
46078;SDS011;31820;51.880;-0.518;2022-10-22T04:58:18;2.22;;;0.38;;
46078;SDS011;31820;51.880;-0.518;2022-10-22T05:00:44;1.10;;;0.32;;
46078;SDS011;31820;51.880;-0.518;2022-10-22T05:03:09;1.23;;;0.32;;
46078;SDS011;31820;51.880;-0.518;2022-10-22T05:05:35;1.25;;;0.25;;
46078;SDS011;31820;51.880;-0.518;2022-10-22T05:08:00;1.38;;;0.30;;
46078;SDS011;31820;51.880;-0.518;2022-10-22T05:10:26;0.90;;;0.28;;
46078;SDS011;31820;51.880;-0.518;2022-10-22T05:12:52;0.75;;;0.25;;
46078;SDS011;31820;51.880;-0.518;2022-10-22T05:15:17;1.75;;;0.40;;
46078;SDS011;31820;51.880;-0.518;2022-10-22T05:17:43;2.03;;;0.20;;
46078;SDS011;31820;51.880;-0.518;2022-10-22T05:20:09;1.08;;;0.20;;
46078;SDS011;31820;51.880;-0.518;2022-10-22T05:22:35;1.20;;;0.20;;
46078;SDS011;31820;51.880;-0.518;2022-10-22T05:25:00;1.05;;;0.30;;
46078;SDS011;31820;51.880;-0.518;2022-10-22T05:27:26;2.15;;;0.40;;
46078;SDS011;31820;51.880;-0.518;2022-10-22T05:29:51;1.70;;;0.32;;
46078;SDS011;31820;51.880;-0.518;2022-10-22T05:32:17;1.00;;;0.25;;
46078;SDS011;31820;51.880;-0.518;2022-10-22T05:34:44;0.85;;;0.30;;
46078;SDS011;31820;51.880;-0.518;2022-10-22T05:37:10;0.60;;;0.20;;
46078;SDS011;31820;51.880;-0.518;2022-10-22T05:39:35;2.50;;;0.43;;
46078;SDS011;31820;51.880;-0.518;2022-10-22T05:42:04;1.30;;;0.40;;
46078;SDS011;31820;51.880;-0.518;2022-10-22T05:44:30;1.02;;;0.30;;
46078;SDS011;31820;51.880;-0.518;2022-10-22T05:46:55;1.27;;;0.40;;
46078;SDS011;31820;51.880;-0.518;2022-10-22T05:49:20;1.65;;;0.40;;
46078;SDS011;31820;51.880;-0.518;2022-10-22T05:51:46;2.15;;;0.30;;
46078;SDS011;31820;51.880;-0.518;2022-10-22T05:54:16;1.13;;;0.35;;
46078;SDS011;31820;51.880;-0.518;2022-10-22T05:56:43;1.60;;;0.30;;
46078;SDS011;31820;51.880;-0.518;2022-10-22T05:59:09;1.20;;;0.38;;
46078;SDS011;31820;51.880;-0.518;2022-10-22T06:01:37;2.25;;;0.45;;
46078;SDS011;31820;51.880;-0.518;2022-10-22T06:09:04;0.82;;;0.17;;
46078;SDS011;31820;51.880;-0.518;2022-10-22T06:11:35;1.25;;;0.20;;
46078;SDS011;31820;51.880;-0.518;2022-10-22T06:14:01;1.20;;;0.30;;
46078;SDS011;31820;51.880;-0.518;2022-10-22T06:16:28;1.52;;;0.35;;
46078;SDS011;31820;51.880;-0.518;2022-10-22T06:18:54;1.17;;;0.30;;
46078;SDS011;31820;51.880;-0.518;2022-10-22T06:21:20;2.28;;;0.40;;
46078;SDS011;31820;51.880;-0.518;2022-10-22T06:23:45;1.42;;;0.20;;
46078;SDS011;31820;51.880;-0.518;2022-10-22T06:26:11;1.63;;;0.40;;
46078;SDS011;31820;51.880;-0.518;2022-10-22T06:28:36;1.42;;;0.30;;
46078;SDS011;31820;51.880;-0.518;2022-10-22T06:31:03;1.38;;;0.28;;
46078;SDS011;31820;51.880;-0.518;2022-10-22T06:33:30;0.98;;;0.22;;
46078;SDS011;31820;51.880;-0.518;2022-10-22T06:36:03;1.83;;;0.40;;
46078;SDS011;31820;51.880;-0.518;2022-10-22T06:38:39;2.60;;;0.43;;
46078;SDS011;31820;51.880;-0.518;2022-10-22T06:41:06;1.45;;;0.45;;
46078;SDS011;31820;51.880;-0.518;2022-10-22T06:43:33;2.25;;;0.30;;
46078;SDS011;31820;51.880;-0.518;2022-10-22T06:46:02;1.63;;;0.20;;
46078;SDS011;31820;51.880;-0.518;2022-10-22T06:48:30;0.63;;;0.20;;
46078;SDS011;31820;51.880;-0.518;2022-10-22T06:50:55;1.05;;;0.20;;
46078;SDS011;31820;51.880;-0.518;2022-10-22T06:53:25;0.85;;;0.20;;
46078;SDS011;31820;51.880;-0.518;2022-10-22T06:55:51;1.38;;;0.38;;
46078;SDS011;31820;51.880;-0.518;2022-10-22T06:58:16;1.48;;;0.40;;
46078;SDS011;31820;51.880;-0.518;2022-10-22T07:00:42;1.55;;;0.30;;
46078;SDS011;31820;51.880;-0.518;2022-10-22T07:03:08;1.20;;;0.32;;
46078;SDS011;31820;51.880;-0.518;2022-10-22T07:05:36;0.90;;;0.20;;
46078;SDS011;31820;51.880;-0.518;2022-10-22T07:08:02;2.80;;;0.75;;
46078;SDS011;31820;51.880;-0.518;2022-10-22T07:10:27;1.90;;;0.43;;
46078;SDS011;31820;51.880;-0.518;2022-10-22T07:12:53;2.03;;;0.30;;
46078;SDS011;31820;51.880;-0.518;2022-10-22T07:15:18;2.10;;;0.40;;
46078;SDS011;31820;51.880;-0.518;2022-10-22T07:17:44;0.95;;;0.15;;
46078;SDS011;31820;51.880;-0.518;2022-10-22T07:20:09;2.38;;;0.40;;
46078;SDS011;31820;51.880;-0.518;2022-10-22T07:22:36;1.40;;;0.38;;
46078;SDS011;31820;51.880;-0.518;2022-10-22T07:25:02;2.03;;;0.45;;
46078;SDS011;31820;51.880;-0.518;2022-10-22T07:27:28;2.22;;;0.30;;
46078;SDS011;31820;51.880;-0.518;2022-10-22T07:29:53;1.35;;;0.40;;
46078;SDS011;31820;51.880;-0.518;2022-10-22T07:32:22;1.00;;;0.30;;
46078;SDS011;31820;51.880;-0.518;2022-10-22T07:34:47;1.48;;;0.40;;
46078;SDS011;31820;51.880;-0.518;2022-10-22T07:37:13;1.58;;;0.30;;
46078;SDS011;31820;51.880;-0.518;2022-10-22T07:39:38;3.00;;;0.40;;
46078;SDS011;31820;51.880;-0.518;2022-10-22T07:42:04;1.15;;;0.40;;
46078;SDS011;31820;51.880;-0.518;2022-10-22T07:44:29;2.20;;;0.60;;
46078;SDS011;31820;51.880;-0.518;2022-10-22T07:46:55;2.53;;;0.50;;
46078;SDS011;31820;51.880;-0.518;2022-10-22T07:49:20;1.42;;;0.40;;
46078;SDS011;31820;51.880;-0.518;2022-10-22T07:51:46;1.15;;;0.30;;
46078;SDS011;31820;51.880;-0.518;2022-10-22T07:54:11;2.03;;;0.43;;
46078;SDS011;31820;51.880;-0.518;2022-10-22T07:56:37;1.38;;;0.40;;
46078;SDS011;31820;51.880;-0.518;2022-10-22T07:59:02;2.13;;;0.40;;
46078;SDS011;31820;51.880;-0.518;2022-10-22T08:01:27;2.00;;;0.47;;
46078;SDS011;31820;51.880;-0.518;2022-10-22T08:03:53;1.45;;;0.30;;
46078;SDS011;31820;51.880;-0.518;2022-10-22T08:06:18;1.05;;;0.43;;
46078;SDS011;31820;51.880;-0.518;2022-10-22T08:08:44;1.25;;;0.45;;
46078;SDS011;31820;51.880;-0.518;2022-10-22T08:11:10;1.55;;;0.40;;
46078;SDS011;31820;51.880;-0.518;2022-10-22T08:13:36;1.52;;;0.40;;
46078;SDS011;31820;51.880;-0.518;2022-10-22T08:16:01;0.77;;;0.20;;
46078;SDS011;31820;51.880;-0.518;2022-10-22T08:18:27;1.77;;;0.55;;
46078;SDS011;31820;51.880;-0.518;2022-10-22T08:20:53;1.20;;;0.52;;
46078;SDS011;31820;51.880;-0.518;2022-10-22T08:23:19;1.52;;;0.60;;
46078;SDS011;31820;51.880;-0.518;2022-10-22T08:25:44;1.40;;;0.40;;
46078;SDS011;31820;51.880;-0.518;2022-10-22T08:28:10;0.85;;;0.20;;
46078;SDS011;31820;51.880;-0.518;2022-10-22T08:30:36;1.80;;;0.30;;
46078;SDS011;31820;51.880;-0.518;2022-10-22T08:33:03;1.45;;;0.40;;
46078;SDS011;31820;51.880;-0.518;2022-10-22T08:35:29;2.87;;;0.40;;
46078;SDS011;31820;51.880;-0.518;2022-10-22T08:37:57;3.80;;;0.47;;
46078;SDS011;31820;51.880;-0.518;2022-10-22T08:40:25;2.55;;;0.50;;
46078;SDS011;31820;51.880;-0.518;2022-10-22T08:49:00;2.85;;;0.43;;
46078;SDS011;31820;51.880;-0.518;2022-10-22T08:51:30;2.20;;;0.65;;
46078;SDS011;31820;51.880;-0.518;2022-10-22T08:56:43;2.45;;;0.60;;
46078;SDS011;31820;51.880;-0.518;2022-10-22T08:59:19;2.03;;;0.47;;
46078;SDS011;31820;51.880;-0.518;2022-10-22T09:01:51;4.68;;;0.70;;
46078;SDS011;31820;51.880;-0.518;2022-10-22T09:06:58;1.58;;;0.35;;
46078;SDS011;31820;51.880;-0.518;2022-10-22T09:09:25;2.65;;;0.52;;
46078;SDS011;31820;51.880;-0.518;2022-10-22T09:11:55;6.65;;;1.02;;
46078;SDS011;31820;51.880;-0.518;2022-10-22T09:25:18;5.90;;;0.95;;
46078;SDS011;31820;51.880;-0.518;2022-10-22T09:27:49;6.22;;;0.90;;
46078;SDS011;31820;51.880;-0.518;2022-10-22T09:30:21;5.47;;;1.02;;
46078;SDS011;31820;51.880;-0.518;2022-10-22T09:33:01;5.28;;;1.05;;
46078;SDS011;31820;51.880;-0.518;2022-10-22T09:35:43;4.45;;;0.68;;
46078;SDS011;31820;51.880;-0.518;2022-10-22T09:38:11;4.03;;;0.50;;
46078;SDS011;31820;51.880;-0.518;2022-10-22T09:40:45;4.32;;;0.88;;
46078;SDS011;31820;51.880;-0.518;2022-10-22T09:43:14;6.75;;;1.00;;
46078;SDS011;31820;51.880;-0.518;2022-10-22T09:45:40;8.73;;;1.13;;
46078;SDS011;31820;51.880;-0.518;2022-10-22T09:50:42;6.47;;;1.40;;
46078;SDS011;31820;51.880;-0.518;2022-10-22T09:58:06;4.10;;;1.05;;
46078;SDS011;31820;51.880;-0.518;2022-10-22T10:00:37;4.85;;;0.82;;
46078;SDS011;31820;51.880;-0.518;2022-10-22T10:03:04;4.53;;;0.82;;
46078;SDS011;31820;51.880;-0.518;2022-10-22T10:05:33;6.45;;;0.95;;
46078;SDS011;31820;51.880;-0.518;2022-10-22T10:08:01;3.70;;;1.00;;
46078;SDS011;31820;51.880;-0.518;2022-10-22T10:10:40;6.65;;;1.42;;
46078;SDS011;31820;51.880;-0.518;2022-10-22T10:18:26;5.25;;;0.80;;
46078;SDS011;31820;51.880;-0.518;2022-10-22T10:24:39;6.72;;;1.38;;
46078;SDS011;31820;51.880;-0.518;2022-10-22T10:38:33;4.28;;;1.25;;
46078;SDS011;31820;51.880;-0.518;2022-10-22T10:40:49;3.85;;;1.00;;
46078;SDS011;31820;51.880;-0.518;2022-10-22T10:43:31;1.88;;;0.60;;
46078;SDS011;31820;51.880;-0.518;2022-10-22T10:48:55;4.63;;;0.80;;
46078;SDS011;31820;51.880;-0.518;2022-10-22T10:51:30;3.40;;;0.80;;
46078;SDS011;31820;51.880;-0.518;2022-10-22T10:59:44;5.90;;;0.95;;
46078;SDS011;31820;51.880;-0.518;2022-10-22T11:13:31;4.00;;;0.98;;
46078;SDS011;31820;51.880;-0.518;2022-10-22T11:16:05;7.13;;;0.80;;
46078;SDS011;31820;51.880;-0.518;2022-10-22T11:18:47;4.00;;;1.17;;
46078;SDS011;31820;51.880;-0.518;2022-10-22T11:21:33;5.32;;;1.00;;
46078;SDS011;31820;51.880;-0.518;2022-10-22T11:29:43;1.98;;;0.60;;
46078;SDS011;31820;51.880;-0.518;2022-10-22T11:32:18;4.15;;;0.77;;
46078;SDS011;31820;51.880;-0.518;2022-10-22T11:34:50;4.60;;;1.17;;
46078;SDS011;31820;51.880;-0.518;2022-10-22T11:37:20;4.32;;;0.68;;
46078;SDS011;31820;51.880;-0.518;2022-10-22T11:39:53;3.88;;;0.90;;
46078;SDS011;31820;51.880;-0.518;2022-10-22T11:42:37;2.42;;;0.98;;
46078;SDS011;31820;51.880;-0.518;2022-10-22T11:47:58;3.63;;;0.80;;
46078;SDS011;31820;51.880;-0.518;2022-10-22T11:50:44;3.20;;;0.60;;
46078;SDS011;31820;51.880;-0.518;2022-10-22T11:56:21;2.90;;;0.73;;
46078;SDS011;31820;51.880;-0.518;2022-10-22T11:58:58;4.63;;;0.85;;
46078;SDS011;31820;51.880;-0.518;2022-10-22T12:01:25;3.20;;;0.60;;
46078;SDS011;31820;51.880;-0.518;2022-10-22T12:06:51;2.70;;;0.85;;
46078;SDS011;31820;51.880;-0.518;2022-10-22T12:09:24;2.78;;;0.75;;
46078;SDS011;31820;51.880;-0.518;2022-10-22T12:11:54;3.80;;;1.00;;
46078;SDS011;31820;51.880;-0.518;2022-10-22T12:14:32;3.67;;;0.70;;
46078;SDS011;31820;51.880;-0.518;2022-10-22T12:17:09;3.42;;;1.00;;
46078;SDS011;31820;51.880;-0.518;2022-10-22T12:19:37;3.13;;;0.80;;
46078;SDS011;31820;51.880;-0.518;2022-10-22T12:24:33;4.75;;;0.77;;
46078;SDS011;31820;51.880;-0.518;2022-10-22T12:27:01;4.68;;;1.20;;
46078;SDS011;31820;51.880;-0.518;2022-10-22T12:29:29;3.78;;;0.70;;
46078;SDS011;31820;51.880;-0.518;2022-10-22T12:32:00;3.50;;;0.57;;
46078;SDS011;31820;51.880;-0.518;2022-10-22T12:34:27;3.33;;;1.02;;
46078;SDS011;31820;51.880;-0.518;2022-10-22T12:36:53;2.80;;;0.70;;
46078;SDS011;31820;51.880;-0.518;2022-10-22T12:39:20;4.05;;;0.90;;
46078;SDS011;31820;51.880;-0.518;2022-10-22T12:41:49;3.35;;;0.80;;
46078;SDS011;31820;51.880;-0.518;2022-10-22T12:44:16;2.60;;;0.65;;
46078;SDS011;31820;51.880;-0.518;2022-10-22T12:46:43;3.80;;;0.88;;
46078;SDS011;31820;51.880;-0.518;2022-10-22T12:49:17;2.30;;;0.68;;
46078;SDS011;31820;51.880;-0.518;2022-10-22T12:51:46;3.58;;;1.02;;
46078;SDS011;31820;51.880;-0.518;2022-10-22T12:54:28;3.08;;;0.80;;
46078;SDS011;31820;51.880;-0.518;2022-10-22T12:56:56;2.88;;;0.77;;
46078;SDS011;31820;51.880;-0.518;2022-10-22T12:59:24;3.47;;;0.80;;
46078;SDS011;31820;51.880;-0.518;2022-10-22T13:01:52;4.65;;;0.80;;
46078;SDS011;31820;51.880;-0.518;2022-10-22T13:04:20;3.58;;;0.95;;
46078;SDS011;31820;51.880;-0.518;2022-10-22T13:09:58;4.22;;;0.88;;
46078;SDS011;31820;51.880;-0.518;2022-10-22T13:12:27;3.00;;;0.70;;
46078;SDS011;31820;51.880;-0.518;2022-10-22T13:15:16;2.38;;;0.77;;
46078;SDS011;31820;51.880;-0.518;2022-10-22T13:20:54;4.57;;;1.25;;
46078;SDS011;31820;51.880;-0.518;2022-10-22T13:23:30;4.68;;;1.50;;
46078;SDS011;31820;51.880;-0.518;2022-10-22T13:26:13;4.93;;;1.15;;
46078;SDS011;31820;51.880;-0.518;2022-10-22T13:28:40;3.38;;;0.90;;
46078;SDS011;31820;51.880;-0.518;2022-10-22T13:31:15;4.07;;;0.82;;
46078;SDS011;31820;51.880;-0.518;2022-10-22T13:33:44;4.55;;;1.05;;
46078;SDS011;31820;51.880;-0.518;2022-10-22T13:36:14;3.28;;;1.38;;
46078;SDS011;31820;51.880;-0.518;2022-10-22T13:38:41;3.17;;;0.88;;
46078;SDS011;31820;51.880;-0.518;2022-10-22T13:44:03;3.42;;;1.10;;
46078;SDS011;31820;51.880;-0.518;2022-10-22T13:46:28;3.15;;;0.85;;
46078;SDS011;31820;51.880;-0.518;2022-10-22T13:48:55;3.40;;;0.80;;
46078;SDS011;31820;51.880;-0.518;2022-10-22T13:53:52;4.97;;;0.70;;
46078;SDS011;31820;51.880;-0.518;2022-10-22T13:56:18;3.33;;;0.90;;
46078;SDS011;31820;51.880;-0.518;2022-10-22T13:58:45;4.25;;;0.77;;
46078;SDS011;31820;51.880;-0.518;2022-10-22T14:01:33;4.97;;;0.90;;
46078;SDS011;31820;51.880;-0.518;2022-10-22T14:03:58;5.63;;;0.98;;
46078;SDS011;31820;51.880;-0.518;2022-10-22T14:06:26;4.50;;;1.10;;
46078;SDS011;31820;51.880;-0.518;2022-10-22T14:08:59;4.80;;;1.20;;
46078;SDS011;31820;51.880;-0.518;2022-10-22T14:11:26;6.47;;;0.93;;
46078;SDS011;31820;51.880;-0.518;2022-10-22T14:13:53;6.20;;;1.13;;
46078;SDS011;31820;51.880;-0.518;2022-10-22T14:16:19;6.10;;;1.10;;
46078;SDS011;31820;51.880;-0.518;2022-10-22T14:18:46;5.07;;;0.90;;
46078;SDS011;31820;51.880;-0.518;2022-10-22T14:21:13;3.47;;;0.90;;
46078;SDS011;31820;51.880;-0.518;2022-10-22T14:26:06;4.75;;;0.73;;
46078;SDS011;31820;51.880;-0.518;2022-10-22T14:28:35;6.77;;;0.90;;
46078;SDS011;31820;51.880;-0.518;2022-10-22T14:31:01;6.10;;;0.90;;
46078;SDS011;31820;51.880;-0.518;2022-10-22T14:33:27;6.20;;;1.00;;
46078;SDS011;31820;51.880;-0.518;2022-10-22T14:35:55;3.95;;;1.38;;
46078;SDS011;31820;51.880;-0.518;2022-10-22T14:38:21;4.55;;;1.25;;
46078;SDS011;31820;51.880;-0.518;2022-10-22T14:40:46;3.25;;;0.68;;
46078;SDS011;31820;51.880;-0.518;2022-10-22T14:43:30;4.95;;;0.80;;
46078;SDS011;31820;51.880;-0.518;2022-10-22T14:45:56;4.47;;;1.02;;
46078;SDS011;31820;51.880;-0.518;2022-10-22T14:48:22;5.80;;;1.02;;
46078;SDS011;31820;51.880;-0.518;2022-10-22T14:50:48;6.55;;;1.17;;
46078;SDS011;31820;51.880;-0.518;2022-10-22T14:53:14;6.55;;;1.00;;
46078;SDS011;31820;51.880;-0.518;2022-10-22T14:55:42;4.82;;;1.02;;
46078;SDS011;31820;51.880;-0.518;2022-10-22T14:58:09;4.60;;;0.98;;
46078;SDS011;31820;51.880;-0.518;2022-10-22T15:00:36;2.92;;;1.10;;
46078;SDS011;31820;51.880;-0.518;2022-10-22T15:03:02;4.47;;;0.90;;
46078;SDS011;31820;51.880;-0.518;2022-10-22T15:05:28;5.90;;;1.42;;
46078;SDS011;31820;51.880;-0.518;2022-10-22T15:07:54;3.72;;;1.35;;
46078;SDS011;31820;51.880;-0.518;2022-10-22T15:10:19;4.75;;;0.85;;
46078;SDS011;31820;51.880;-0.518;2022-10-22T15:12:45;4.13;;;0.93;;
46078;SDS011;31820;51.880;-0.518;2022-10-22T15:15:10;4.97;;;1.20;;
46078;SDS011;31820;51.880;-0.518;2022-10-22T15:17:36;3.00;;;0.68;;
46078;SDS011;31820;51.880;-0.518;2022-10-22T15:20:02;3.83;;;1.38;;
46078;SDS011;31820;51.880;-0.518;2022-10-22T15:22:30;4.07;;;0.98;;
46078;SDS011;31820;51.880;-0.518;2022-10-22T15:24:59;5.43;;;1.08;;
46078;SDS011;31820;51.880;-0.518;2022-10-22T15:27:31;4.13;;;1.00;;
46078;SDS011;31820;51.880;-0.518;2022-10-22T15:29:57;4.68;;;1.08;;
46078;SDS011;31820;51.880;-0.518;2022-10-22T15:32:26;4.65;;;1.77;;
46078;SDS011;31820;51.880;-0.518;2022-10-22T15:34:53;4.15;;;1.20;;
46078;SDS011;31820;51.880;-0.518;2022-10-22T15:37:19;5.90;;;1.20;;
46078;SDS011;31820;51.880;-0.518;2022-10-22T15:39:45;5.32;;;1.17;;
46078;SDS011;31820;51.880;-0.518;2022-10-22T15:42:11;4.32;;;1.50;;
46078;SDS011;31820;51.880;-0.518;2022-10-22T15:44:38;5.88;;;1.02;;
46078;SDS011;31820;51.880;-0.518;2022-10-22T15:47:05;6.15;;;1.67;;
46078;SDS011;31820;51.880;-0.518;2022-10-22T15:49:32;4.97;;;0.90;;
46078;SDS011;31820;51.880;-0.518;2022-10-22T15:51:59;4.35;;;1.00;;
46078;SDS011;31820;51.880;-0.518;2022-10-22T15:54:26;3.63;;;0.85;;
46078;SDS011;31820;51.880;-0.518;2022-10-22T15:56:53;4.80;;;1.13;;
46078;SDS011;31820;51.880;-0.518;2022-10-22T15:59:20;3.05;;;1.02;;
46078;SDS011;31820;51.880;-0.518;2022-10-22T16:01:46;5.63;;;1.42;;
46078;SDS011;31820;51.880;-0.518;2022-10-22T16:04:12;3.50;;;0.98;;
46078;SDS011;31820;51.880;-0.518;2022-10-22T16:06:41;3.17;;;1.02;;
46078;SDS011;31820;51.880;-0.518;2022-10-22T16:09:12;3.72;;;0.82;;
46078;SDS011;31820;51.880;-0.518;2022-10-22T16:11:40;3.78;;;1.02;;
46078;SDS011;31820;51.880;-0.518;2022-10-22T16:14:06;6.18;;;0.80;;
46078;SDS011;31820;51.880;-0.518;2022-10-22T16:16:34;4.63;;;1.00;;
46078;SDS011;31820;51.880;-0.518;2022-10-22T16:19:00;3.40;;;1.15;;
46078;SDS011;31820;51.880;-0.518;2022-10-22T16:21:26;3.22;;;0.98;;
46078;SDS011;31820;51.880;-0.518;2022-10-22T16:23:53;2.95;;;0.88;;
46078;SDS011;31820;51.880;-0.518;2022-10-22T16:26:18;4.20;;;1.10;;
46078;SDS011;31820;51.880;-0.518;2022-10-22T16:28:45;4.43;;;1.10;;
46078;SDS011;31820;51.880;-0.518;2022-10-22T16:31:12;3.30;;;0.88;;
46078;SDS011;31820;51.880;-0.518;2022-10-22T16:33:39;3.95;;;0.90;;
46078;SDS011;31820;51.880;-0.518;2022-10-22T16:36:07;3.97;;;0.90;;
46078;SDS011;31820;51.880;-0.518;2022-10-22T16:38:33;4.35;;;0.80;;
46078;SDS011;31820;51.880;-0.518;2022-10-22T16:41:18;2.40;;;0.70;;
46078;SDS011;31820;51.880;-0.518;2022-10-22T16:43:46;4.25;;;0.73;;
46078;SDS011;31820;51.880;-0.518;2022-10-22T16:48:42;3.80;;;0.93;;
46078;SDS011;31820;51.880;-0.518;2022-10-22T16:51:11;2.53;;;0.70;;
46078;SDS011;31820;51.880;-0.518;2022-10-22T16:53:38;3.20;;;0.95;;
46078;SDS011;31820;51.880;-0.518;2022-10-22T16:56:03;2.35;;;0.85;;
46078;SDS011;31820;51.880;-0.518;2022-10-22T16:58:32;2.50;;;0.70;;
46078;SDS011;31820;51.880;-0.518;2022-10-22T17:00:57;3.40;;;0.98;;
46078;SDS011;31820;51.880;-0.518;2022-10-22T17:03:23;2.97;;;0.60;;
46078;SDS011;31820;51.880;-0.518;2022-10-22T17:05:48;4.15;;;0.77;;